sensor_id;sensor_type;location;lat;lon;timestamp;P1;durP1;ratioP1;P2;durP2;ratioP2
41167;SDS011;26906;45.658;9.272;2023-12-20T06:35:57;23.98;;;14.20;;
41167;SDS011;26906;45.658;9.272;2023-12-20T06:38:23;23.63;;;15.32;;
41167;SDS011;26906;45.658;9.272;2023-12-20T06:40:48;19.80;;;15.13;;
41167;SDS011;26906;45.658;9.272;2023-12-20T06:43:14;24.25;;;15.35;;
41167;SDS011;26906;45.658;9.272;2023-12-20T06:45:40;35.28;;;14.88;;
41167;SDS011;26906;45.658;9.272;2023-12-20T06:48:06;24.45;;;13.93;;
41167;SDS011;26906;45.658;9.272;2023-12-20T06:50:32;23.17;;;15.00;;
41167;SDS011;26906;45.658;9.272;2023-12-20T06:52:57;22.27;;;14.13;;
41167;SDS011;26906;45.658;9.272;2023-12-20T06:55:23;22.95;;;14.85;;
41167;SDS011;26906;45.658;9.272;2023-12-20T06:57:49;27.23;;;15.30;;
41167;SDS011;26906;45.658;9.272;2023-12-20T07:00:15;26.92;;;15.77;;
41167;SDS011;26906;45.658;9.272;2023-12-20T07:02:41;23.63;;;14.70;;
41167;SDS011;26906;45.658;9.272;2023-12-20T07:05:07;27.70;;;14.80;;
41167;SDS011;26906;45.658;9.272;2023-12-20T07:07:32;25.13;;;15.65;;
41167;SDS011;26906;45.658;9.272;2023-12-20T07:09:58;33.92;;;16.65;;
41167;SDS011;26906;45.658;9.272;2023-12-20T07:12:24;27.75;;;16.50;;
41167;SDS011;26906;45.658;9.272;2023-12-20T07:14:49;27.50;;;15.20;;
41167;SDS011;26906;45.658;9.272;2023-12-20T07:17:15;23.50;;;14.63;;
41167;SDS011;26906;45.658;9.272;2023-12-20T07:19:41;34.58;;;15.57;;
41167;SDS011;26906;45.658;9.272;2023-12-20T07:22:07;29.55;;;15.85;;
41167;SDS011;26906;45.658;9.272;2023-12-20T07:24:33;22.67;;;14.27;;
41167;SDS011;26906;45.658;9.272;2023-12-20T07:27:00;29.48;;;14.38;;
41167;SDS011;26906;45.658;9.272;2023-12-20T07:29:26;23.05;;;14.73;;
41167;SDS011;26906;45.658;9.272;2023-12-20T07:31:52;26.92;;;15.38;;
41167;SDS011;26906;45.658;9.272;2023-12-20T07:34:19;26.40;;;14.32;;
41167;SDS011;26906;45.658;9.272;2023-12-20T07:36:46;26.00;;;17.00;;
41167;SDS011;26906;45.658;9.272;2023-12-20T07:39:12;28.70;;;18.00;;
41167;SDS011;26906;45.658;9.272;2023-12-20T07:41:38;34.00;;;21.05;;
41167;SDS011;26906;45.658;9.272;2023-12-20T07:44:04;39.83;;;25.25;;
41167;SDS011;26906;45.658;9.272;2023-12-20T07:46:30;44.83;;;24.85;;
41167;SDS011;26906;45.658;9.272;2023-12-20T07:48:56;32.30;;;19.33;;
41167;SDS011;26906;45.658;9.272;2023-12-20T07:51:21;29.35;;;19.83;;
41167;SDS011;26906;45.658;9.272;2023-12-20T07:53:47;26.17;;;19.25;;
41167;SDS011;26906;45.658;9.272;2023-12-20T07:56:13;32.15;;;19.83;;
41167;SDS011;26906;45.658;9.272;2023-12-20T07:58:43;29.92;;;17.45;;
41167;SDS011;26906;45.658;9.272;2023-12-20T08:01:10;29.45;;;16.40;;
41167;SDS011;26906;45.658;9.272;2023-12-20T08:03:37;26.58;;;16.42;;
41167;SDS011;26906;45.658;9.272;2023-12-20T08:06:03;23.45;;;16.33;;
41167;SDS011;26906;45.658;9.272;2023-12-20T08:08:29;31.27;;;16.85;;
41167;SDS011;26906;45.658;9.272;2023-12-20T08:10:55;28.52;;;17.38;;
41167;SDS011;26906;45.658;9.272;2023-12-20T08:13:22;27.20;;;16.70;;
41167;SDS011;26906;45.658;9.272;2023-12-20T08:15:51;25.52;;;15.85;;
41167;SDS011;26906;45.658;9.272;2023-12-20T08:18:17;27.85;;;15.93;;
41167;SDS011;26906;45.658;9.272;2023-12-20T08:20:43;23.45;;;15.43;;
41167;SDS011;26906;45.658;9.272;2023-12-20T08:23:09;24.88;;;16.08;;
41167;SDS011;26906;45.658;9.272;2023-12-20T08:25:34;27.30;;;17.45;;
41167;SDS011;26906;45.658;9.272;2023-12-20T08:28:01;26.38;;;17.33;;
41167;SDS011;26906;45.658;9.272;2023-12-20T08:30:28;25.55;;;16.60;;
41167;SDS011;26906;45.658;9.272;2023-12-20T08:32:54;26.05;;;16.77;;
41167;SDS011;26906;45.658;9.272;2023-12-20T08:35:20;28.20;;;17.02;;
41167;SDS011;26906;45.658;9.272;2023-12-20T08:37:46;35.40;;;17.38;;
41167;SDS011;26906;45.658;9.272;2023-12-20T08:40:12;28.58;;;17.13;;
41167;SDS011;26906;45.658;9.272;2023-12-20T08:42:38;25.17;;;15.63;;
41167;SDS011;26906;45.658;9.272;2023-12-20T08:45:04;36.25;;;17.25;;
41167;SDS011;26906;45.658;9.272;2023-12-20T08:47:30;30.23;;;15.63;;
41167;SDS011;26906;45.658;9.272;2023-12-20T08:49:56;28.58;;;16.80;;
41167;SDS011;26906;45.658;9.272;2023-12-20T08:52:24;24.30;;;17.88;;
41167;SDS011;26906;45.658;9.272;2023-12-20T08:54:50;28.50;;;18.17;;
41167;SDS011;26906;45.658;9.272;2023-12-20T08:57:19;27.60;;;17.92;;
41167;SDS011;26906;45.658;9.272;2023-12-20T08:59:46;28.55;;;16.92;;
41167;SDS011;26906;45.658;9.272;2023-12-20T09:02:15;24.10;;;15.68;;
41167;SDS011;26906;45.658;9.272;2023-12-20T09:04:41;25.83;;;17.08;;
41167;SDS011;26906;45.658;9.272;2023-12-20T09:07:07;27.38;;;18.05;;
41167;SDS011;26906;45.658;9.272;2023-12-20T09:09:45;32.83;;;18.67;;
41167;SDS011;26906;45.658;9.272;2023-12-20T09:12:11;26.88;;;18.08;;
41167;SDS011;26906;45.658;9.272;2023-12-20T09:14:36;28.98;;;18.30;;
41167;SDS011;26906;45.658;9.272;2023-12-20T09:17:02;32.20;;;19.27;;
41167;SDS011;26906;45.658;9.272;2023-12-20T09:19:28;31.45;;;17.17;;
41167;SDS011;26906;45.658;9.272;2023-12-20T09:21:54;30.40;;;17.45;;
41167;SDS011;26906;45.658;9.272;2023-12-20T09:24:20;32.13;;;17.23;;
41167;SDS011;26906;45.658;9.272;2023-12-20T09:26:45;32.55;;;19.20;;
41167;SDS011;26906;45.658;9.272;2023-12-20T09:29:11;30.13;;;19.00;;
41167;SDS011;26906;45.658;9.272;2023-12-20T09:31:40;32.78;;;19.10;;
41167;SDS011;26906;45.658;9.272;2023-12-20T09:34:08;33.80;;;18.80;;
41167;SDS011;26906;45.658;9.272;2023-12-20T09:36:34;27.73;;;17.98;;
41167;SDS011;26906;45.658;9.272;2023-12-20T09:39:01;29.60;;;18.05;;
41167;SDS011;26906;45.658;9.272;2023-12-20T09:41:28;31.40;;;19.52;;
41167;SDS011;26906;45.658;9.272;2023-12-20T09:44:02;33.42;;;19.92;;
41167;SDS011;26906;45.658;9.272;2023-12-20T09:46:28;35.90;;;20.10;;
41167;SDS011;26906;45.658;9.272;2023-12-20T09:48:58;34.05;;;20.27;;
41167;SDS011;26906;45.658;9.272;2023-12-20T09:51:25;30.67;;;18.60;;
41167;SDS011;26906;45.658;9.272;2023-12-20T09:53:54;28.90;;;19.77;;
41167;SDS011;26906;45.658;9.272;2023-12-20T09:56:20;30.70;;;19.63;;
41167;SDS011;26906;45.658;9.272;2023-12-20T09:58:49;32.10;;;20.33;;
41167;SDS011;26906;45.658;9.272;2023-12-20T10:01:15;40.78;;;20.40;;
41167;SDS011;26906;45.658;9.272;2023-12-20T10:03:41;35.17;;;20.48;;
41167;SDS011;26906;45.658;9.272;2023-12-20T10:06:08;37.28;;;22.42;;
41167;SDS011;26906;45.658;9.272;2023-12-20T10:08:34;41.92;;;21.27;;
41167;SDS011;26906;45.658;9.272;2023-12-20T10:11:00;38.00;;;20.77;;
41167;SDS011;26906;45.658;9.272;2023-12-20T10:13:27;33.63;;;21.55;;
41167;SDS011;26906;45.658;9.272;2023-12-20T10:15:54;35.13;;;22.13;;
41167;SDS011;26906;45.658;9.272;2023-12-20T10:18:21;39.80;;;21.90;;
41167;SDS011;26906;45.658;9.272;2023-12-20T10:20:46;34.95;;;21.85;;
41167;SDS011;26906;45.658;9.272;2023-12-20T10:23:12;36.08;;;21.73;;
41167;SDS011;26906;45.658;9.272;2023-12-20T10:25:40;32.53;;;19.88;;
41167;SDS011;26906;45.658;9.272;2023-12-20T10:30:39;38.25;;;20.25;;
41167;SDS011;26906;45.658;9.272;2023-12-20T10:33:06;38.45;;;20.38;;
41167;SDS011;26906;45.658;9.272;2023-12-20T10:35:33;36.42;;;19.50;;
41167;SDS011;26906;45.658;9.272;2023-12-20T10:38:00;32.20;;;19.83;;
41167;SDS011;26906;45.658;9.272;2023-12-20T10:40:29;40.17;;;20.73;;
41167;SDS011;26906;45.658;9.272;2023-12-20T10:42:55;37.28;;;22.83;;
41167;SDS011;26906;45.658;9.272;2023-12-20T10:45:22;36.03;;;22.60;;
41167;SDS011;26906;45.658;9.272;2023-12-20T10:47:48;38.88;;;24.10;;
41167;SDS011;26906;45.658;9.272;2023-12-20T10:50:15;36.95;;;23.02;;
41167;SDS011;26906;45.658;9.272;2023-12-20T10:52:41;37.35;;;22.23;;
41167;SDS011;26906;45.658;9.272;2023-12-20T10:55:09;34.67;;;21.88;;
41167;SDS011;26906;45.658;9.272;2023-12-20T10:57:36;41.63;;;23.25;;
41167;SDS011;26906;45.658;9.272;2023-12-20T11:00:02;37.95;;;22.30;;
41167;SDS011;26906;45.658;9.272;2023-12-20T11:02:30;44.53;;;23.58;;
41167;SDS011;26906;45.658;9.272;2023-12-20T11:05:03;38.15;;;23.63;;
41167;SDS011;26906;45.658;9.272;2023-12-20T11:07:36;38.25;;;24.50;;
41167;SDS011;26906;45.658;9.272;2023-12-20T11:10:13;42.17;;;25.57;;
41167;SDS011;26906;45.658;9.272;2023-12-20T11:12:52;39.60;;;27.08;;
41167;SDS011;26906;45.658;9.272;2023-12-20T11:15:22;45.05;;;27.52;;
41167;SDS011;26906;45.658;9.272;2023-12-20T11:17:55;45.95;;;26.65;;
41167;SDS011;26906;45.658;9.272;2023-12-20T11:20:22;43.90;;;28.27;;
41167;SDS011;26906;45.658;9.272;2023-12-20T11:22:52;38.53;;;28.10;;
41167;SDS011;26906;45.658;9.272;2023-12-20T11:25:18;55.00;;;33.13;;
41167;SDS011;26906;45.658;9.272;2023-12-20T11:27:44;43.53;;;30.45;;
41167;SDS011;26906;45.658;9.272;2023-12-20T11:33:14;49.00;;;30.80;;
41167;SDS011;26906;45.658;9.272;2023-12-20T11:35:40;42.63;;;29.80;;
41167;SDS011;26906;45.658;9.272;2023-12-20T11:38:09;43.90;;;29.98;;
41167;SDS011;26906;45.658;9.272;2023-12-20T11:40:35;47.67;;;30.70;;
41167;SDS011;26906;45.658;9.272;2023-12-20T11:43:02;46.75;;;30.73;;
41167;SDS011;26906;45.658;9.272;2023-12-20T11:45:29;42.17;;;29.67;;
41167;SDS011;26906;45.658;9.272;2023-12-20T11:47:56;42.38;;;29.55;;
41167;SDS011;26906;45.658;9.272;2023-12-20T11:50:23;39.90;;;28.33;;
41167;SDS011;26906;45.658;9.272;2023-12-20T11:52:49;48.58;;;29.17;;
41167;SDS011;26906;45.658;9.272;2023-12-20T11:55:17;45.85;;;28.98;;
41167;SDS011;26906;45.658;9.272;2023-12-20T11:57:43;47.70;;;29.38;;
41167;SDS011;26906;45.658;9.272;2023-12-20T12:00:10;45.78;;;29.92;;
41167;SDS011;26906;45.658;9.272;2023-12-20T12:02:39;43.35;;;29.02;;
41167;SDS011;26906;45.658;9.272;2023-12-20T12:05:05;41.53;;;30.17;;
41167;SDS011;26906;45.658;9.272;2023-12-20T12:07:31;48.45;;;29.00;;
41167;SDS011;26906;45.658;9.272;2023-12-20T12:09:57;50.53;;;30.30;;
41167;SDS011;26906;45.658;9.272;2023-12-20T12:12:23;42.28;;;28.48;;
41167;SDS011;26906;45.658;9.272;2023-12-20T12:14:51;48.47;;;27.77;;
41167;SDS011;26906;45.658;9.272;2023-12-20T12:17:17;53.15;;;28.27;;
41167;SDS011;26906;45.658;9.272;2023-12-20T12:19:43;42.33;;;28.98;;
41167;SDS011;26906;45.658;9.272;2023-12-20T12:22:15;45.55;;;29.58;;
41167;SDS011;26906;45.658;9.272;2023-12-20T12:24:45;48.33;;;30.65;;
41167;SDS011;26906;45.658;9.272;2023-12-20T12:27:15;49.92;;;29.55;;
41167;SDS011;26906;45.658;9.272;2023-12-20T12:29:41;46.08;;;30.25;;
41167;SDS011;26906;45.658;9.272;2023-12-20T12:32:24;45.95;;;29.38;;
41167;SDS011;26906;45.658;9.272;2023-12-20T12:34:50;48.38;;;30.42;;
41167;SDS011;26906;45.658;9.272;2023-12-20T12:37:16;50.42;;;29.60;;
41167;SDS011;26906;45.658;9.272;2023-12-20T12:39:42;48.58;;;29.17;;
41167;SDS011;26906;45.658;9.272;2023-12-20T12:42:08;39.42;;;29.48;;
41167;SDS011;26906;45.658;9.272;2023-12-20T12:44:33;42.85;;;30.40;;
41167;SDS011;26906;45.658;9.272;2023-12-20T12:46:59;43.60;;;33.22;;
41167;SDS011;26906;45.658;9.272;2023-12-20T12:49:24;44.42;;;32.10;;
41167;SDS011;26906;45.658;9.272;2023-12-20T12:51:53;48.78;;;34.13;;
41167;SDS011;26906;45.658;9.272;2023-12-20T12:54:21;50.25;;;35.60;;
41167;SDS011;26906;45.658;9.272;2023-12-20T12:56:46;49.45;;;34.53;;
41167;SDS011;26906;45.658;9.272;2023-12-20T12:59:12;49.88;;;35.53;;
41167;SDS011;26906;45.658;9.272;2023-12-20T13:01:38;43.67;;;34.33;;
41167;SDS011;26906;45.658;9.272;2023-12-20T13:04:04;54.22;;;35.47;;
41167;SDS011;26906;45.658;9.272;2023-12-20T13:06:35;60.03;;;37.00;;
41167;SDS011;26906;45.658;9.272;2023-12-20T13:09:02;47.95;;;37.58;;
41167;SDS011;26906;45.658;9.272;2023-12-20T13:11:27;51.92;;;36.58;;
41167;SDS011;26906;45.658;9.272;2023-12-20T13:13:54;54.65;;;38.47;;
41167;SDS011;26906;45.658;9.272;2023-12-20T13:16:19;57.97;;;38.55;;
41167;SDS011;26906;45.658;9.272;2023-12-20T13:18:45;52.28;;;38.70;;
41167;SDS011;26906;45.658;9.272;2023-12-20T13:21:11;57.72;;;38.47;;
41167;SDS011;26906;45.658;9.272;2023-12-20T13:23:36;53.72;;;39.33;;
41167;SDS011;26906;45.658;9.272;2023-12-20T13:26:02;56.80;;;41.15;;
41167;SDS011;26906;45.658;9.272;2023-12-20T13:28:28;60.00;;;40.25;;
41167;SDS011;26906;45.658;9.272;2023-12-20T13:30:54;57.47;;;40.63;;
41167;SDS011;26906;45.658;9.272;2023-12-20T13:33:19;55.90;;;40.70;;
41167;SDS011;26906;45.658;9.272;2023-12-20T13:35:45;56.17;;;40.53;;
41167;SDS011;26906;45.658;9.272;2023-12-20T13:38:12;56.97;;;41.15;;
41167;SDS011;26906;45.658;9.272;2023-12-20T13:40:38;60.08;;;39.70;;
41167;SDS011;26906;45.658;9.272;2023-12-20T13:43:04;53.97;;;39.55;;
41167;SDS011;26906;45.658;9.272;2023-12-20T13:45:29;54.40;;;40.25;;
41167;SDS011;26906;45.658;9.272;2023-12-20T13:47:55;59.70;;;40.58;;
41167;SDS011;26906;45.658;9.272;2023-12-20T13:50:21;53.10;;;40.35;;
41167;SDS011;26906;45.658;9.272;2023-12-20T13:52:47;53.17;;;42.10;;
41167;SDS011;26906;45.658;9.272;2023-12-20T13:55:13;62.67;;;43.60;;
41167;SDS011;26906;45.658;9.272;2023-12-20T13:57:38;58.55;;;40.00;;
41167;SDS011;26906;45.658;9.272;2023-12-20T14:00:06;56.85;;;40.33;;
41167;SDS011;26906;45.658;9.272;2023-12-20T14:02:39;55.75;;;41.83;;
41167;SDS011;26906;45.658;9.272;2023-12-20T14:05:08;59.53;;;42.05;;
41167;SDS011;26906;45.658;9.272;2023-12-20T14:07:34;52.95;;;39.95;;
41167;SDS011;26906;45.658;9.272;2023-12-20T14:10:00;56.13;;;40.03;;
41167;SDS011;26906;45.658;9.272;2023-12-20T14:12:25;54.17;;;40.17;;
41167;SDS011;26906;45.658;9.272;2023-12-20T14:14:51;64.03;;;40.25;;
41167;SDS011;26906;45.658;9.272;2023-12-20T14:17:17;55.50;;;39.42;;
41167;SDS011;26906;45.658;9.272;2023-12-20T14:19:43;63.78;;;43.13;;
41167;SDS011;26906;45.658;9.272;2023-12-20T14:22:08;59.70;;;40.72;;
41167;SDS011;26906;45.658;9.272;2023-12-20T14:24:37;52.83;;;38.55;;
41167;SDS011;26906;45.658;9.272;2023-12-20T14:27:02;52.28;;;41.33;;
41167;SDS011;26906;45.658;9.272;2023-12-20T14:29:28;51.13;;;36.97;;
41167;SDS011;26906;45.658;9.272;2023-12-20T14:31:54;49.85;;;36.55;;
41167;SDS011;26906;45.658;9.272;2023-12-20T14:34:19;48.85;;;36.45;;
41167;SDS011;26906;45.658;9.272;2023-12-20T14:36:45;49.88;;;34.90;;
41167;SDS011;26906;45.658;9.272;2023-12-20T14:39:11;47.65;;;34.80;;
41167;SDS011;26906;45.658;9.272;2023-12-20T14:41:38;49.97;;;35.50;;
41167;SDS011;26906;45.658;9.272;2023-12-20T14:44:05;55.67;;;35.95;;
41167;SDS011;26906;45.658;9.272;2023-12-20T14:46:31;46.65;;;34.05;;
41167;SDS011;26906;45.658;9.272;2023-12-20T14:48:57;40.90;;;33.22;;
41167;SDS011;26906;45.658;9.272;2023-12-20T14:51:23;43.42;;;33.28;;
41167;SDS011;26906;45.658;9.272;2023-12-20T14:53:49;43.53;;;33.15;;
41167;SDS011;26906;45.658;9.272;2023-12-20T14:56:15;47.17;;;33.63;;
41167;SDS011;26906;45.658;9.272;2023-12-20T14:58:41;41.53;;;31.35;;
41167;SDS011;26906;45.658;9.272;2023-12-20T15:01:07;51.65;;;34.85;;
41167;SDS011;26906;45.658;9.272;2023-12-20T15:03:34;49.38;;;34.72;;
41167;SDS011;26906;45.658;9.272;2023-12-20T15:06:00;48.33;;;34.15;;
41167;SDS011;26906;45.658;9.272;2023-12-20T15:08:25;47.05;;;34.28;;
41167;SDS011;26906;45.658;9.272;2023-12-20T15:10:51;53.63;;;35.42;;
41167;SDS011;26906;45.658;9.272;2023-12-20T15:13:17;43.17;;;33.13;;
41167;SDS011;26906;45.658;9.272;2023-12-20T15:15:43;45.53;;;33.53;;
41167;SDS011;26906;45.658;9.272;2023-12-20T15:18:09;50.30;;;33.75;;
41167;SDS011;26906;45.658;9.272;2023-12-20T15:20:34;49.45;;;34.03;;
41167;SDS011;26906;45.658;9.272;2023-12-20T15:23:01;48.72;;;35.05;;
41167;SDS011;26906;45.658;9.272;2023-12-20T15:25:32;47.72;;;34.83;;
41167;SDS011;26906;45.658;9.272;2023-12-20T15:27:58;50.63;;;35.65;;
41167;SDS011;26906;45.658;9.272;2023-12-20T15:30:24;47.70;;;34.78;;
41167;SDS011;26906;45.658;9.272;2023-12-20T15:32:53;49.95;;;37.13;;
41167;SDS011;26906;45.658;9.272;2023-12-20T15:35:18;45.90;;;34.97;;
41167;SDS011;26906;45.658;9.272;2023-12-20T15:37:44;53.83;;;35.97;;
41167;SDS011;26906;45.658;9.272;2023-12-20T15:40:10;48.65;;;35.40;;
41167;SDS011;26906;45.658;9.272;2023-12-20T15:42:37;55.85;;;37.55;;
41167;SDS011;26906;45.658;9.272;2023-12-20T15:45:04;70.45;;;37.30;;
41167;SDS011;26906;45.658;9.272;2023-12-20T15:47:30;56.22;;;36.92;;
41167;SDS011;26906;45.658;9.272;2023-12-20T15:49:56;60.13;;;37.67;;
41167;SDS011;26906;45.658;9.272;2023-12-20T15:52:22;56.90;;;39.20;;
41167;SDS011;26906;45.658;9.272;2023-12-20T15:54:48;53.88;;;38.00;;
41167;SDS011;26906;45.658;9.272;2023-12-20T15:57:14;59.55;;;36.53;;
41167;SDS011;26906;45.658;9.272;2023-12-20T15:59:42;59.08;;;38.50;;
41167;SDS011;26906;45.658;9.272;2023-12-20T16:02:08;62.15;;;40.22;;
41167;SDS011;26906;45.658;9.272;2023-12-20T16:04:34;65.90;;;39.65;;
41167;SDS011;26906;45.658;9.272;2023-12-20T16:07:00;59.50;;;41.38;;
41167;SDS011;26906;45.658;9.272;2023-12-20T16:09:25;71.60;;;41.38;;
41167;SDS011;26906;45.658;9.272;2023-12-20T16:11:51;78.95;;;43.83;;
41167;SDS011;26906;45.658;9.272;2023-12-20T16:14:17;69.22;;;42.33;;
41167;SDS011;26906;45.658;9.272;2023-12-20T16:16:44;65.32;;;40.17;;
41167;SDS011;26906;45.658;9.272;2023-12-20T16:19:12;66.97;;;42.40;;
41167;SDS011;26906;45.658;9.272;2023-12-20T16:21:37;68.85;;;40.75;;
41167;SDS011;26906;45.658;9.272;2023-12-20T16:24:03;73.03;;;42.83;;
41167;SDS011;26906;45.658;9.272;2023-12-20T16:26:29;70.32;;;43.13;;
41167;SDS011;26906;45.658;9.272;2023-12-20T16:28:55;59.25;;;39.47;;
41167;SDS011;26906;45.658;9.272;2023-12-20T16:31:20;56.92;;;40.35;;
41167;SDS011;26906;45.658;9.272;2023-12-20T16:33:46;59.70;;;41.33;;
41167;SDS011;26906;45.658;9.272;2023-12-20T16:36:12;58.05;;;40.20;;
41167;SDS011;26906;45.658;9.272;2023-12-20T16:38:37;63.03;;;42.63;;
41167;SDS011;26906;45.658;9.272;2023-12-20T16:41:03;63.92;;;41.40;;
41167;SDS011;26906;45.658;9.272;2023-12-20T16:43:29;62.88;;;41.63;;
41167;SDS011;26906;45.658;9.272;2023-12-20T16:45:54;57.53;;;41.85;;
41167;SDS011;26906;45.658;9.272;2023-12-20T16:48:20;57.63;;;39.03;;
41167;SDS011;26906;45.658;9.272;2023-12-20T16:50:46;56.72;;;38.95;;
41167;SDS011;26906;45.658;9.272;2023-12-20T16:53:12;55.25;;;40.13;;
41167;SDS011;26906;45.658;9.272;2023-12-20T16:55:40;61.58;;;42.97;;
41167;SDS011;26906;45.658;9.272;2023-12-20T16:58:08;65.97;;;42.38;;
41167;SDS011;26906;45.658;9.272;2023-12-20T17:00:34;60.42;;;44.65;;
41167;SDS011;26906;45.658;9.272;2023-12-20T17:03:00;59.08;;;43.20;;
41167;SDS011;26906;45.658;9.272;2023-12-20T17:05:26;60.47;;;43.42;;
41167;SDS011;26906;45.658;9.272;2023-12-20T17:07:51;64.93;;;43.70;;
41167;SDS011;26906;45.658;9.272;2023-12-20T17:10:17;61.45;;;45.38;;
41167;SDS011;26906;45.658;9.272;2023-12-20T17:12:43;56.78;;;41.75;;
41167;SDS011;26906;45.658;9.272;2023-12-20T17:15:08;58.55;;;41.20;;
41167;SDS011;26906;45.658;9.272;2023-12-20T17:17:37;52.40;;;38.58;;
41167;SDS011;26906;45.658;9.272;2023-12-20T17:20:03;55.75;;;41.22;;
41167;SDS011;26906;45.658;9.272;2023-12-20T17:22:29;63.33;;;41.75;;
41167;SDS011;26906;45.658;9.272;2023-12-20T17:24:55;60.17;;;41.20;;
41167;SDS011;26906;45.658;9.272;2023-12-20T17:27:20;53.15;;;40.13;;
41167;SDS011;26906;45.658;9.272;2023-12-20T17:29:46;49.45;;;38.10;;
41167;SDS011;26906;45.658;9.272;2023-12-20T17:32:11;54.15;;;38.80;;
41167;SDS011;26906;45.658;9.272;2023-12-20T17:34:37;55.83;;;37.80;;
41167;SDS011;26906;45.658;9.272;2023-12-20T17:37:03;61.47;;;41.25;;
41167;SDS011;26906;45.658;9.272;2023-12-20T17:39:29;57.25;;;40.45;;
41167;SDS011;26906;45.658;9.272;2023-12-20T17:41:55;64.72;;;39.75;;
41167;SDS011;26906;45.658;9.272;2023-12-20T17:44:20;67.80;;;41.20;;
41167;SDS011;26906;45.658;9.272;2023-12-20T17:46:47;56.15;;;40.78;;
41167;SDS011;26906;45.658;9.272;2023-12-20T17:49:13;52.80;;;38.92;;
41167;SDS011;26906;45.658;9.272;2023-12-20T17:51:39;55.80;;;39.40;;
41167;SDS011;26906;45.658;9.272;2023-12-20T17:54:05;54.17;;;40.78;;
41167;SDS011;26906;45.658;9.272;2023-12-20T17:56:31;55.85;;;40.42;;
41167;SDS011;26906;45.658;9.272;2023-12-20T17:58:56;64.38;;;41.53;;
41167;SDS011;26906;45.658;9.272;2023-12-20T18:01:23;49.45;;;39.80;;
41167;SDS011;26906;45.658;9.272;2023-12-20T18:03:48;58.67;;;40.50;;
41167;SDS011;26906;45.658;9.272;2023-12-20T18:06:14;56.33;;;38.25;;
41167;SDS011;26906;45.658;9.272;2023-12-20T18:08:39;58.92;;;42.63;;
41167;SDS011;26906;45.658;9.272;2023-12-20T18:11:05;52.17;;;39.72;;
41167;SDS011;26906;45.658;9.272;2023-12-20T18:13:31;58.70;;;41.40;;
41167;SDS011;26906;45.658;9.272;2023-12-20T18:15:56;68.00;;;41.60;;
41167;SDS011;26906;45.658;9.272;2023-12-20T18:18:22;61.28;;;41.78;;
41167;SDS011;26906;45.658;9.272;2023-12-20T18:20:48;66.28;;;42.15;;
41167;SDS011;26906;45.658;9.272;2023-12-20T18:23:13;61.67;;;41.45;;
41167;SDS011;26906;45.658;9.272;2023-12-20T18:25:39;60.40;;;41.55;;
41167;SDS011;26906;45.658;9.272;2023-12-20T18:28:05;58.22;;;43.00;;
41167;SDS011;26906;45.658;9.272;2023-12-20T18:30:31;66.00;;;42.08;;
41167;SDS011;26906;45.658;9.272;2023-12-20T18:32:56;62.97;;;41.65;;
41167;SDS011;26906;45.658;9.272;2023-12-20T18:35:23;54.88;;;38.78;;
41167;SDS011;26906;45.658;9.272;2023-12-20T18:37:49;62.63;;;42.25;;
41167;SDS011;26906;45.658;9.272;2023-12-20T18:40:15;58.47;;;42.20;;
41167;SDS011;26906;45.658;9.272;2023-12-20T18:42:42;62.72;;;41.33;;
41167;SDS011;26906;45.658;9.272;2023-12-20T18:45:08;65.65;;;46.08;;
41167;SDS011;26906;45.658;9.272;2023-12-20T18:47:34;64.60;;;43.80;;
41167;SDS011;26906;45.658;9.272;2023-12-20T18:49:59;65.45;;;43.35;;
41167;SDS011;26906;45.658;9.272;2023-12-20T18:52:28;62.13;;;43.30;;
41167;SDS011;26906;45.658;9.272;2023-12-20T18:54:53;73.03;;;45.38;;
41167;SDS011;26906;45.658;9.272;2023-12-20T18:57:19;67.30;;;47.13;;
41167;SDS011;26906;45.658;9.272;2023-12-20T18:59:45;65.78;;;47.10;;
41167;SDS011;26906;45.658;9.272;2023-12-20T19:02:11;70.55;;;44.95;;
41167;SDS011;26906;45.658;9.272;2023-12-20T19:04:37;63.50;;;43.55;;
41167;SDS011;26906;45.658;9.272;2023-12-20T19:07:03;69.90;;;48.40;;
41167;SDS011;26906;45.658;9.272;2023-12-20T19:09:29;60.38;;;41.38;;
41167;SDS011;26906;45.658;9.272;2023-12-20T19:11:55;56.35;;;39.95;;
41167;SDS011;26906;45.658;9.272;2023-12-20T19:14:20;57.75;;;40.40;;
41167;SDS011;26906;45.658;9.272;2023-12-20T19:16:49;62.42;;;41.28;;
41167;SDS011;26906;45.658;9.272;2023-12-20T19:19:15;59.88;;;42.25;;
41167;SDS011;26906;45.658;9.272;2023-12-20T19:21:41;55.55;;;39.78;;
41167;SDS011;26906;45.658;9.272;2023-12-20T19:24:07;60.03;;;43.92;;
41167;SDS011;26906;45.658;9.272;2023-12-20T19:26:33;79.55;;;56.15;;
41167;SDS011;26906;45.658;9.272;2023-12-20T19:28:59;64.50;;;45.40;;
41167;SDS011;26906;45.658;9.272;2023-12-20T19:31:24;61.92;;;42.38;;
41167;SDS011;26906;45.658;9.272;2023-12-20T19:33:50;67.53;;;44.42;;
41167;SDS011;26906;45.658;9.272;2023-12-20T19:36:17;63.00;;;43.08;;
41167;SDS011;26906;45.658;9.272;2023-12-20T19:38:44;64.45;;;44.28;;
41167;SDS011;26906;45.658;9.272;2023-12-20T19:41:10;57.10;;;37.97;;
41167;SDS011;26906;45.658;9.272;2023-12-20T19:43:36;63.72;;;44.88;;
41167;SDS011;26906;45.658;9.272;2023-12-20T19:46:04;59.60;;;42.65;;
41167;SDS011;26906;45.658;9.272;2023-12-20T19:48:30;61.13;;;43.03;;
41167;SDS011;26906;45.658;9.272;2023-12-20T19:50:56;58.35;;;40.88;;
41167;SDS011;26906;45.658;9.272;2023-12-20T19:53:22;57.40;;;40.78;;
41167;SDS011;26906;45.658;9.272;2023-12-20T19:55:51;53.55;;;40.80;;
41167;SDS011;26906;45.658;9.272;2023-12-20T19:58:17;63.17;;;44.42;;
41167;SDS011;26906;45.658;9.272;2023-12-20T20:00:43;72.53;;;47.55;;
41167;SDS011;26906;45.658;9.272;2023-12-20T20:03:08;71.07;;;45.60;;
41167;SDS011;26906;45.658;9.272;2023-12-20T20:05:34;60.22;;;41.10;;
41167;SDS011;26906;45.658;9.272;2023-12-20T20:08:00;56.55;;;42.40;;
41167;SDS011;26906;45.658;9.272;2023-12-20T20:10:26;64.80;;;43.10;;
41167;SDS011;26906;45.658;9.272;2023-12-20T20:12:52;61.75;;;42.15;;
41167;SDS011;26906;45.658;9.272;2023-12-20T20:15:18;56.30;;;40.20;;
41167;SDS011;26906;45.658;9.272;2023-12-20T20:17:44;56.83;;;38.75;;
41167;SDS011;26906;45.658;9.272;2023-12-20T20:20:10;58.05;;;39.53;;
41167;SDS011;26906;45.658;9.272;2023-12-20T20:22:36;61.97;;;39.85;;
41167;SDS011;26906;45.658;9.272;2023-12-20T20:25:02;45.85;;;34.42;;
41167;SDS011;26906;45.658;9.272;2023-12-20T20:27:29;51.67;;;33.92;;
41167;SDS011;26906;45.658;9.272;2023-12-20T20:29:54;59.75;;;38.72;;
41167;SDS011;26906;45.658;9.272;2023-12-20T20:32:20;56.75;;;40.65;;
41167;SDS011;26906;45.658;9.272;2023-12-20T20:34:46;54.03;;;36.05;;
41167;SDS011;26906;45.658;9.272;2023-12-20T20:37:11;53.30;;;37.85;;
41167;SDS011;26906;45.658;9.272;2023-12-20T20:39:37;57.92;;;38.13;;
41167;SDS011;26906;45.658;9.272;2023-12-20T20:42:03;54.40;;;39.10;;
41167;SDS011;26906;45.658;9.272;2023-12-20T20:44:29;54.28;;;38.30;;
41167;SDS011;26906;45.658;9.272;2023-12-20T20:46:54;58.67;;;36.40;;
41167;SDS011;26906;45.658;9.272;2023-12-20T20:49:20;55.60;;;36.33;;
41167;SDS011;26906;45.658;9.272;2023-12-20T20:51:48;52.28;;;35.85;;
41167;SDS011;26906;45.658;9.272;2023-12-20T20:54:14;59.42;;;36.80;;
41167;SDS011;26906;45.658;9.272;2023-12-20T20:56:40;60.00;;;38.40;;